sensor_id;sensor_type;location;lat;lon;timestamp;pressure;altitude;pressure_sealevel;temperature;humidity
23281;BME280;11809;56.390;-3.266;2023-07-31T00:00:53;99734.16;;;19.77;65.71
23281;BME280;11809;56.390;-3.266;2023-07-31T00:03:20;99729.81;;;19.76;65.52
23281;BME280;11809;56.390;-3.266;2023-07-31T00:05:47;99730.94;;;19.74;65.60
23281;BME280;11809;56.390;-3.266;2023-07-31T00:08:14;99729.13;;;19.74;65.72
23281;BME280;11809;56.390;-3.266;2023-07-31T00:10:41;99725.72;;;19.72;65.70
23281;BME280;11809;56.390;-3.266;2023-07-31T00:13:08;99723.91;;;19.73;65.77
23281;BME280;11809;56.390;-3.266;2023-07-31T00:15:36;99719.72;;;19.70;65.80
23281;BME280;11809;56.390;-3.266;2023-07-31T00:18:03;99718.00;;;19.69;66.03
23281;BME280;11809;56.390;-3.266;2023-07-31T00:20:30;99712.00;;;19.67;66.04
23281;BME280;11809;56.390;-3.266;2023-07-31T00:22:57;99713.69;;;19.68;65.68
23281;BME280;11809;56.390;-3.266;2023-07-31T00:25:24;99704.00;;;19.67;65.87
23281;BME280;11809;56.390;-3.266;2023-07-31T00:27:51;99704.00;;;19.67;65.64
23281;BME280;11809;56.390;-3.266;2023-07-31T00:30:18;99703.31;;;19.65;65.82
23281;BME280;11809;56.390;-3.266;2023-07-31T00:32:45;99705.00;;;19.66;65.91
23281;BME280;11809;56.390;-3.266;2023-07-31T00:35:13;99697.97;;;19.65;65.79
23281;BME280;11809;56.390;-3.266;2023-07-31T00:37:40;99688.28;;;19.64;65.73
23281;BME280;11809;56.390;-3.266;2023-07-31T00:40:07;99696.28;;;19.64;65.95
23281;BME280;11809;56.390;-3.266;2023-07-31T00:42:34;99696.59;;;19.61;65.56
23281;BME280;11809;56.390;-3.266;2023-07-31T00:45:02;99696.59;;;19.61;65.90
23281;BME280;11809;56.390;-3.266;2023-07-31T00:47:29;99691.53;;;19.58;65.60
23281;BME280;11809;56.390;-3.266;2023-07-31T00:49:56;99695.00;;;19.59;65.97
23281;BME280;11809;56.390;-3.266;2023-07-31T00:52:23;99696.88;;;19.58;65.61
23281;BME280;11809;56.390;-3.266;2023-07-31T00:54:50;99688.88;;;19.58;66.01
23281;BME280;11809;56.390;-3.266;2023-07-31T00:57:18;99689.00;;;19.57;65.64
23281;BME280;11809;56.390;-3.266;2023-07-31T00:59:45;99681.84;;;19.57;65.75
23281;BME280;11809;56.390;-3.266;2023-07-31T01:02:13;99679.19;;;19.57;65.70
23281;BME280;11809;56.390;-3.266;2023-07-31T01:04:42;99677.50;;;19.56;65.79
23281;BME280;11809;56.390;-3.266;2023-07-31T01:10:05;99670.78;;;19.52;66.03
23281;BME280;11809;56.390;-3.266;2023-07-31T01:12:36;99669.81;;;19.53;66.05
23281;BME280;11809;56.390;-3.266;2023-07-31T01:15:09;99678.63;;;19.54;65.85
23281;BME280;11809;56.390;-3.266;2023-07-31T01:17:39;99669.94;;;19.52;65.75
23281;BME280;11809;56.390;-3.266;2023-07-31T01:28:14;99656.03;;;19.48;65.90
23281;BME280;11809;56.390;-3.266;2023-07-31T01:30:47;99650.72;;;19.48;65.65
23281;BME280;11809;56.390;-3.266;2023-07-31T01:33:17;99651.72;;;19.47;65.89
23281;BME280;11809;56.390;-3.266;2023-07-31T01:35:46;99643.03;;;19.45;65.73
23281;BME280;11809;56.390;-3.266;2023-07-31T01:38:15;99643.03;;;19.45;65.70
23281;BME280;11809;56.390;-3.266;2023-07-31T01:40:51;99645.97;;;19.42;65.97
23281;BME280;11809;56.390;-3.266;2023-07-31T01:43:18;99646.81;;;19.43;65.90
23281;BME280;11809;56.390;-3.266;2023-07-31T01:45:45;99643.59;;;19.39;66.04
23281;BME280;11809;56.390;-3.266;2023-07-31T01:48:12;99640.91;;;19.39;65.96
23281;BME280;11809;56.390;-3.266;2023-07-31T01:50:39;99643.59;;;19.39;65.94
23281;BME280;11809;56.390;-3.266;2023-07-31T01:53:06;99633.03;;;19.38;65.86
23281;BME280;11809;56.390;-3.266;2023-07-31T01:55:33;99631.34;;;19.36;65.94
23281;BME280;11809;56.390;-3.266;2023-07-31T01:58:00;99627.84;;;19.36;66.19
23281;BME280;11809;56.390;-3.266;2023-07-31T02:00:27;99620.69;;;19.36;66.06
23281;BME280;11809;56.390;-3.266;2023-07-31T02:02:55;99617.19;;;19.36;65.87
23281;BME280;11809;56.390;-3.266;2023-07-31T02:05:22;99615.50;;;19.35;65.95
23281;BME280;11809;56.390;-3.266;2023-07-31T02:07:49;99612.81;;;19.35;65.97
23281;BME280;11809;56.390;-3.266;2023-07-31T02:10:16;99610.16;;;19.35;65.81
23281;BME280;11809;56.390;-3.266;2023-07-31T02:12:43;99609.47;;;19.33;65.75
23281;BME280;11809;56.390;-3.266;2023-07-31T02:15:10;99612.28;;;19.31;66.00
23281;BME280;11809;56.390;-3.266;2023-07-31T02:17:37;99604.28;;;19.31;66.00
23281;BME280;11809;56.390;-3.266;2023-07-31T02:20:05;99605.16;;;19.32;65.90
23281;BME280;11809;56.390;-3.266;2023-07-31T02:22:32;99599.09;;;19.30;66.11
23281;BME280;11809;56.390;-3.266;2023-07-31T02:24:59;99604.56;;;19.28;65.90
23281;BME280;11809;56.390;-3.266;2023-07-31T02:27:26;99602.75;;;19.29;65.62
23281;BME280;11809;56.390;-3.266;2023-07-31T02:29:54;99598.41;;;19.28;65.92
23281;BME280;11809;56.390;-3.266;2023-07-31T02:32:21;99602.88;;;19.27;65.63
23281;BME280;11809;56.390;-3.266;2023-07-31T02:34:48;99605.41;;;19.29;65.89
23281;BME280;11809;56.390;-3.266;2023-07-31T02:37:15;99596.72;;;19.27;65.81
23281;BME280;11809;56.390;-3.266;2023-07-31T02:39:42;99595.03;;;19.26;65.95
23281;BME280;11809;56.390;-3.266;2023-07-31T02:42:10;99597.03;;;19.24;66.06
23281;BME280;11809;56.390;-3.266;2023-07-31T02:44:37;99582.97;;;19.22;65.85
23281;BME280;11809;56.390;-3.266;2023-07-31T02:47:04;99596.00;;;19.25;65.80
23281;BME280;11809;56.390;-3.266;2023-07-31T02:49:31;99598.69;;;19.25;66.11
23281;BME280;11809;56.390;-3.266;2023-07-31T02:51:58;99600.66;;;19.23;65.81
23281;BME280;11809;56.390;-3.266;2023-07-31T02:54:25;99598.97;;;19.22;65.79
23281;BME280;11809;56.390;-3.266;2023-07-31T02:56:52;99591.13;;;19.20;65.86
23281;BME280;11809;56.390;-3.266;2023-07-31T02:59:20;99590.44;;;19.18;65.73
23281;BME280;11809;56.390;-3.266;2023-07-31T03:01:47;99598.44;;;19.18;65.82
23281;BME280;11809;56.390;-3.266;2023-07-31T03:04:14;99591.25;;;19.19;65.87
23281;BME280;11809;56.390;-3.266;2023-07-31T03:06:44;99590.28;;;19.20;65.57
23281;BME280;11809;56.390;-3.266;2023-07-31T03:09:11;99596.72;;;19.17;65.62
23281;BME280;11809;56.390;-3.266;2023-07-31T03:11:38;99587.91;;;19.17;65.94
23281;BME280;11809;56.390;-3.266;2023-07-31T03:14:05;99587.03;;;19.16;65.84
23281;BME280;11809;56.390;-3.266;2023-07-31T03:16:32;99584.38;;;19.16;65.59
23281;BME280;11809;56.390;-3.266;2023-07-31T03:18:59;99582.72;;;19.15;65.89
23281;BME280;11809;56.390;-3.266;2023-07-31T03:21:26;99575.69;;;19.14;65.73
23281;BME280;11809;56.390;-3.266;2023-07-31T03:23:53;99580.06;;;19.15;65.69
23281;BME280;11809;56.390;-3.266;2023-07-31T03:26:20;99582.84;;;19.14;65.77
23281;BME280;11809;56.390;-3.266;2023-07-31T03:28:47;99577.66;;;19.12;65.89
23281;BME280;11809;56.390;-3.266;2023-07-31T03:31:16;99576.81;;;19.12;65.90
23281;BME280;11809;56.390;-3.266;2023-07-31T03:33:43;99579.38;;;19.13;65.79
23281;BME280;11809;56.390;-3.266;2023-07-31T03:36:10;99570.66;;;19.11;65.63
23281;BME280;11809;56.390;-3.266;2023-07-31T03:38:37;99578.63;;;19.11;65.73
23281;BME280;11809;56.390;-3.266;2023-07-31T03:41:04;99571.78;;;19.09;65.69
23281;BME280;11809;56.390;-3.266;2023-07-31T03:43:33;99583.28;;;19.09;65.96
23281;BME280;11809;56.390;-3.266;2023-07-31T03:46:02;99583.28;;;19.09;65.94
23281;BME280;11809;56.390;-3.266;2023-07-31T03:48:29;99579.06;;;19.07;65.67
23281;BME280;11809;56.390;-3.266;2023-07-31T03:50:56;99581.91;;;19.05;65.86
23281;BME280;11809;56.390;-3.266;2023-07-31T03:53:24;99576.69;;;19.04;65.83
23281;BME280;11809;56.390;-3.266;2023-07-31T03:55:51;99578.66;;;19.02;65.97
23281;BME280;11809;56.390;-3.266;2023-07-31T03:58:18;99577.69;;;19.03;65.50
23281;BME280;11809;56.390;-3.266;2023-07-31T04:00:45;99578.66;;;19.02;65.58
23281;BME280;11809;56.390;-3.266;2023-07-31T04:03:12;99578.78;;;19.00;65.90
23281;BME280;11809;56.390;-3.266;2023-07-31T04:05:39;99571.63;;;19.01;65.94
23281;BME280;11809;56.390;-3.266;2023-07-31T04:08:06;99569.97;;;19.00;65.75
23281;BME280;11809;56.390;-3.266;2023-07-31T04:10:33;99560.28;;;18.99;65.87
23281;BME280;11809;56.390;-3.266;2023-07-31T04:13:00;99563.94;;;18.98;65.77
23281;BME280;11809;56.390;-3.266;2023-07-31T04:15:27;99561.16;;;18.99;66.02
23281;BME280;11809;56.390;-3.266;2023-07-31T04:17:55;99566.47;;;18.99;65.64
23281;BME280;11809;56.390;-3.266;2023-07-31T04:20:22;99556.66;;;19.00;65.76
23281;BME280;11809;56.390;-3.266;2023-07-31T04:22:49;99559.44;;;18.98;65.42
23281;BME280;11809;56.390;-3.266;2023-07-31T04:25:16;99558.31;;;19.01;65.99
23281;BME280;11809;56.390;-3.266;2023-07-31T04:27:43;99556.66;;;19.00;64.29
23281;BME280;11809;56.390;-3.266;2023-07-31T04:30:10;99564.25;;;18.95;63.43
23281;BME280;11809;56.390;-3.266;2023-07-31T04:32:37;99564.50;;;18.92;63.95
23281;BME280;11809;56.390;-3.266;2023-07-31T04:35:05;99560.16;;;18.91;64.52
23281;BME280;11809;56.390;-3.266;2023-07-31T04:37:32;99558.63;;;18.88;64.90
23281;BME280;11809;56.390;-3.266;2023-07-31T04:39:59;99553.03;;;18.91;65.02
23281;BME280;11809;56.390;-3.266;2023-07-31T04:42:26;99554.00;;;18.90;65.18
23281;BME280;11809;56.390;-3.266;2023-07-31T04:44:53;99547.81;;;18.90;65.29
23281;BME280;11809;56.390;-3.266;2023-07-31T04:47:20;99547.00;;;18.89;65.03
23281;BME280;11809;56.390;-3.266;2023-07-31T04:49:47;99543.22;;;18.92;65.25
23281;BME280;11809;56.390;-3.266;2023-07-31T04:52:14;99551.19;;;18.92;65.25
23281;BME280;11809;56.390;-3.266;2023-07-31T04:54:41;99542.38;;;18.91;65.36
23281;BME280;11809;56.390;-3.266;2023-07-31T04:57:08;99544.88;;;18.93;65.49
23281;BME280;11809;56.390;-3.266;2023-07-31T04:59:35;99544.88;;;18.93;65.73
23281;BME280;11809;56.390;-3.266;2023-07-31T05:02:02;99547.94;;;18.98;65.56
23281;BME280;11809;56.390;-3.266;2023-07-31T05:04:29;99548.41;;;19.03;65.54
23281;BME280;11809;56.390;-3.266;2023-07-31T05:06:56;99546.44;;;19.05;66.13
23281;BME280;11809;56.390;-3.266;2023-07-31T05:09:23;99544.31;;;19.08;66.26
23281;BME280;11809;56.390;-3.266;2023-07-31T05:11:50;99552.84;;;19.12;66.14
23281;BME280;11809;56.390;-3.266;2023-07-31T05:14:17;99550.88;;;19.14;66.37
23281;BME280;11809;56.390;-3.266;2023-07-31T05:16:44;99543.63;;;19.16;66.52
23281;BME280;11809;56.390;-3.266;2023-07-31T05:19:11;99541.75;;;19.16;66.86
23281;BME280;11809;56.390;-3.266;2023-07-31T05:21:38;99538.81;;;19.19;66.64
23281;BME280;11809;56.390;-3.266;2023-07-31T05:24:06;99538.69;;;19.21;66.85
23281;BME280;11809;56.390;-3.266;2023-07-31T05:26:33;99529.69;;;19.22;66.54
23281;BME280;11809;56.390;-3.266;2023-07-31T05:29:00;99520.31;;;19.27;66.78
23281;BME280;11809;56.390;-3.266;2023-07-31T05:31:27;99534.03;;;19.32;66.74
23281;BME280;11809;56.390;-3.266;2023-07-31T05:33:55;99527.72;;;19.33;66.43
23281;BME280;11809;56.390;-3.266;2023-07-31T05:36:22;99535.03;;;19.31;66.34
23281;BME280;11809;56.390;-3.266;2023-07-31T05:38:49;99524.78;;;19.27;66.42
23281;BME280;11809;56.390;-3.266;2023-07-31T05:41:16;99538.81;;;19.29;66.67
23281;BME280;11809;56.390;-3.266;2023-07-31T05:43:43;99530.84;;;19.29;66.58
23281;BME280;11809;56.390;-3.266;2023-07-31T05:46:10;99530.84;;;19.29;66.52
23281;BME280;11809;56.390;-3.266;2023-07-31T05:48:38;99531.13;;;19.26;66.31
23281;BME280;11809;56.390;-3.266;2023-07-31T05:51:05;99527.44;;;19.27;66.71
23281;BME280;11809;56.390;-3.266;2023-07-31T05:53:33;99527.16;;;19.30;66.77
23281;BME280;11809;56.390;-3.266;2023-07-31T05:56:01;99522.69;;;19.30;66.32
23281;BME280;11809;56.390;-3.266;2023-07-31T05:58:28;99529.13;;;19.28;66.22
23281;BME280;11809;56.390;-3.266;2023-07-31T06:00:55;99516.78;;;19.27;66.61
23281;BME280;11809;56.390;-3.266;2023-07-31T06:03:22;99519.59;;;19.25;66.27
23281;BME280;11809;56.390;-3.266;2023-07-31T06:05:49;99520.59;;;19.24;66.61
23281;BME280;11809;56.390;-3.266;2023-07-31T06:08:17;99519.59;;;19.25;66.57
23281;BME280;11809;56.390;-3.266;2023-07-31T06:10:44;99517.09;;;19.24;66.62
23281;BME280;11809;56.390;-3.266;2023-07-31T06:13:11;99517.78;;;19.26;66.70
23281;BME280;11809;56.390;-3.266;2023-07-31T06:15:38;99515.97;;;19.26;66.90
23281;BME280;11809;56.390;-3.266;2023-07-31T06:18:05;99511.47;;;19.27;66.54
23281;BME280;11809;56.390;-3.266;2023-07-31T06:20:34;99510.50;;;19.28;66.34
23281;BME280;11809;56.390;-3.266;2023-07-31T06:23:01;99509.53;;;19.29;66.31
23281;BME280;11809;56.390;-3.266;2023-07-31T06:25:29;99503.63;;;19.25;66.71
23281;BME280;11809;56.390;-3.266;2023-07-31T06:27:56;99503.47;;;19.27;66.22
23281;BME280;11809;56.390;-3.266;2023-07-31T06:30:23;99495.34;;;19.28;66.31
23281;BME280;11809;56.390;-3.266;2023-07-31T06:32:50;99498.88;;;19.29;66.30
23281;BME280;11809;56.390;-3.266;2023-07-31T06:35:17;99491.84;;;19.28;66.24
23281;BME280;11809;56.390;-3.266;2023-07-31T06:37:44;99493.53;;;19.29;66.25
23281;BME280;11809;56.390;-3.266;2023-07-31T06:40:12;99498.88;;;19.29;66.23
23281;BME280;11809;56.390;-3.266;2023-07-31T06:42:41;99480.34;;;19.27;66.38
23281;BME280;11809;56.390;-3.266;2023-07-31T06:45:09;99484.00;;;19.26;66.14
23281;BME280;11809;56.390;-3.266;2023-07-31T06:47:36;99484.13;;;19.25;66.35
23281;BME280;11809;56.390;-3.266;2023-07-31T06:50:04;99486.81;;;19.25;66.54
23281;BME280;11809;56.390;-3.266;2023-07-31T06:52:32;99481.47;;;19.25;66.30
23281;BME280;11809;56.390;-3.266;2023-07-31T06:57:50;99481.34;;;19.26;66.22
23281;BME280;11809;56.390;-3.266;2023-07-31T07:00:19;99474.47;;;19.24;66.25
23281;BME280;11809;56.390;-3.266;2023-07-31T07:02:47;99482.31;;;19.25;66.21
23281;BME280;11809;56.390;-3.266;2023-07-31T07:05:17;99481.19;;;19.28;66.27
23281;BME280;11809;56.390;-3.266;2023-07-31T07:07:45;99481.47;;;19.25;66.06
23281;BME280;11809;56.390;-3.266;2023-07-31T07:10:12;99469.16;;;19.24;66.39
23281;BME280;11809;56.390;-3.266;2023-07-31T07:12:39;99471.94;;;19.22;66.40
23281;BME280;11809;56.390;-3.266;2023-07-31T07:15:08;99472.78;;;19.23;65.98
23281;BME280;11809;56.390;-3.266;2023-07-31T07:17:36;99468.31;;;19.23;66.20
23281;BME280;11809;56.390;-3.266;2023-07-31T07:20:04;99457.50;;;19.25;65.90
23281;BME280;11809;56.390;-3.266;2023-07-31T07:22:31;99452.16;;;19.25;65.97
23281;BME280;11809;56.390;-3.266;2023-07-31T07:24:58;99457.66;;;19.23;66.13
23281;BME280;11809;56.390;-3.266;2023-07-31T07:27:25;99452.63;;;19.20;66.32
23281;BME280;11809;56.390;-3.266;2023-07-31T07:29:53;99456.94;;;19.21;66.03
23281;BME280;11809;56.390;-3.266;2023-07-31T07:32:21;99448.13;;;19.21;66.13
23281;BME280;11809;56.390;-3.266;2023-07-31T07:34:49;99456.81;;;19.23;66.22
23281;BME280;11809;56.390;-3.266;2023-07-31T07:37:16;99449.66;;;19.23;65.99
23281;BME280;11809;56.390;-3.266;2023-07-31T07:39:44;99444.47;;;19.22;65.72
23281;BME280;11809;56.390;-3.266;2023-07-31T07:42:11;99439.97;;;19.22;65.91
23281;BME280;11809;56.390;-3.266;2023-07-31T07:44:39;99439.84;;;19.24;65.70
23281;BME280;11809;56.390;-3.266;2023-07-31T07:47:06;99440.53;;;19.26;66.46
23281;BME280;11809;56.390;-3.266;2023-07-31T07:49:34;99432.25;;;19.29;66.43
23281;BME280;11809;56.390;-3.266;2023-07-31T07:52:02;99431.25;;;19.30;66.50
23281;BME280;11809;56.390;-3.266;2023-07-31T07:54:30;99429.31;;;19.32;66.22
23281;BME280;11809;56.390;-3.266;2023-07-31T07:56:58;99427.47;;;19.32;66.28
23281;BME280;11809;56.390;-3.266;2023-07-31T07:59:25;99423.81;;;19.33;66.04
23281;BME280;11809;56.390;-3.266;2023-07-31T08:01:52;99420.31;;;19.33;65.59
23281;BME280;11809;56.390;-3.266;2023-07-31T08:04:20;99422.84;;;19.34;65.99
23281;BME280;11809;56.390;-3.266;2023-07-31T08:06:47;99415.53;;;19.36;65.81
23281;BME280;11809;56.390;-3.266;2023-07-31T08:09:15;99405.00;;;19.35;65.76
23281;BME280;11809;56.390;-3.266;2023-07-31T08:11:44;99399.84;;;19.33;65.50
23281;BME280;11809;56.390;-3.266;2023-07-31T08:14:13;99403.19;;;19.35;65.73
23281;BME280;11809;56.390;-3.266;2023-07-31T08:16:41;99398.59;;;19.38;65.72
23281;BME280;11809;56.390;-3.266;2023-07-31T08:19:09;99389.75;;;19.37;65.80
23281;BME280;11809;56.390;-3.266;2023-07-31T08:21:36;99385.25;;;19.38;65.73
23281;BME280;11809;56.390;-3.266;2023-07-31T08:24:04;99381.75;;;19.37;65.56
23281;BME280;11809;56.390;-3.266;2023-07-31T08:26:31;99380.06;;;19.36;65.58
23281;BME280;11809;56.390;-3.266;2023-07-31T08:28:59;99374.06;;;19.34;65.76
23281;BME280;11809;56.390;-3.266;2023-07-31T08:31:27;99362.00;;;19.30;65.66
23281;BME280;11809;56.390;-3.266;2023-07-31T08:33:56;99366.91;;;19.34;65.56
23281;BME280;11809;56.390;-3.266;2023-07-31T08:36:24;99359.03;;;19.33;65.74
23281;BME280;11809;56.390;-3.266;2023-07-31T08:38:56;99361.03;;;19.31;65.49
23281;BME280;11809;56.390;-3.266;2023-07-31T08:41:25;99362.72;;;19.32;65.68
23281;BME280;11809;56.390;-3.266;2023-07-31T08:43:54;99355.81;;;19.29;65.63
23281;BME280;11809;56.390;-3.266;2023-07-31T08:46:22;99358.34;;;19.31;65.38
23281;BME280;11809;56.390;-3.266;2023-07-31T08:48:51;99358.50;;;19.29;65.51
23281;BME280;11809;56.390;-3.266;2023-07-31T08:51:19;99350.50;;;19.29;65.54
23281;BME280;11809;56.390;-3.266;2023-07-31T08:53:47;99354.00;;;19.30;65.11
23281;BME280;11809;56.390;-3.266;2023-07-31T08:56:15;99349.69;;;19.29;65.27
23281;BME280;11809;56.390;-3.266;2023-07-31T08:58:44;99342.66;;;19.28;66.08
23281;BME280;11809;56.390;-3.266;2023-07-31T09:01:13;99339.44;;;19.24;65.96
23281;BME280;11809;56.390;-3.266;2023-07-31T09:03:44;99334.28;;;19.23;66.10
23281;BME280;11809;56.390;-3.266;2023-07-31T09:06:13;99333.31;;;19.24;66.20
23281;BME280;11809;56.390;-3.266;2023-07-31T09:08:42;99330.94;;;19.21;66.03
23281;BME280;11809;56.390;-3.266;2023-07-31T09:11:11;99335.97;;;19.24;66.67
23281;BME280;11809;56.390;-3.266;2023-07-31T09:13:40;99339.44;;;19.24;66.32
23281;BME280;11809;56.390;-3.266;2023-07-31T09:16:08;99336.09;;;19.22;66.17
23281;BME280;11809;56.390;-3.266;2023-07-31T09:18:53;99339.75;;;19.21;66.28
23281;BME280;11809;56.390;-3.266;2023-07-31T09:21:23;99334.28;;;19.23;66.38
23281;BME280;11809;56.390;-3.266;2023-07-31T09:23:51;99337.06;;;19.21;66.22
23281;BME280;11809;56.390;-3.266;2023-07-31T09:26:34;99336.94;;;19.23;66.41
23281;BME280;11809;56.390;-3.266;2023-07-31T09:29:18;99339.31;;;19.26;66.94
23281;BME280;11809;56.390;-3.266;2023-07-31T09:31:46;99337.63;;;19.25;66.54
23281;BME280;11809;56.390;-3.266;2023-07-31T09:34:13;99335.97;;;19.24;66.54
23281;BME280;11809;56.390;-3.266;2023-07-31T09:36:48;99339.63;;;19.23;66.49
23281;BME280;11809;56.390;-3.266;2023-07-31T09:39:19;99331.91;;;19.20;66.48
23281;BME280;11809;56.390;-3.266;2023-07-31T09:41:53;99321.41;;;19.18;66.61
23281;BME280;11809;56.390;-3.266;2023-07-31T09:44:21;99320.69;;;19.26;66.83
23281;BME280;11809;56.390;-3.266;2023-07-31T09:46:55;99312.97;;;19.23;66.48
23281;BME280;11809;56.390;-3.266;2023-07-31T09:49:25;99313.28;;;19.20;66.88
23281;BME280;11809;56.390;-3.266;2023-07-31T09:51:52;99299.78;;;19.21;67.05
23281;BME280;11809;56.390;-3.266;2023-07-31T09:54:20;99305.13;;;19.21;67.06
23281;BME280;11809;56.390;-3.266;2023-07-31T09:56:48;99302.72;;;19.28;67.01
23281;BME280;11809;56.390;-3.266;2023-07-31T09:59:17;99294.56;;;19.29;67.50
23281;BME280;11809;56.390;-3.266;2023-07-31T10:01:49;99300.13;;;19.36;67.18
23281;BME280;11809;56.390;-3.266;2023-07-31T10:04:18;99303.78;;;19.35;67.44
23281;BME280;11809;56.390;-3.266;2023-07-31T10:06:53;99286.81;;;19.36;67.06
23281;BME280;11809;56.390;-3.266;2023-07-31T10:09:21;99278.81;;;19.36;67.33
23281;BME280;11809;56.390;-3.266;2023-07-31T10:12:00;99284.03;;;19.38;67.44
23281;BME280;11809;56.390;-3.266;2023-07-31T10:14:30;99276.88;;;19.38;67.53
23281;BME280;11809;56.390;-3.266;2023-07-31T10:16:58;99275.59;;;19.42;67.31
23281;BME280;11809;56.390;-3.266;2023-07-31T10:19:26;99269.13;;;19.45;67.20
23281;BME280;11809;56.390;-3.266;2023-07-31T10:21:55;99276.97;;;19.46;67.27
23281;BME280;11809;56.390;-3.266;2023-07-31T10:24:24;99272.47;;;19.47;67.52
23281;BME280;11809;56.390;-3.266;2023-07-31T10:26:53;99267.69;;;19.50;67.50
23281;BME280;11809;56.390;-3.266;2023-07-31T10:29:25;99267.53;;;19.52;67.43
23281;BME280;11809;56.390;-3.266;2023-07-31T10:31:56;99269.66;;;19.48;66.94
23281;BME280;11809;56.390;-3.266;2023-07-31T10:34:24;99262.19;;;19.52;67.27
23281;BME280;11809;56.390;-3.266;2023-07-31T10:40:10;99258.38;;;19.54;66.75
23281;BME280;11809;56.390;-3.266;2023-07-31T10:42:55;99257.38;;;19.38;67.13
23281;BME280;11809;56.390;-3.266;2023-07-31T10:45:35;99255.75;;;19.27;67.57
23281;BME280;11809;56.390;-3.266;2023-07-31T10:48:13;99253.41;;;19.24;67.86
23281;BME280;11809;56.390;-3.266;2023-07-31T10:50:48;99244.09;;;19.28;67.77
23281;BME280;11809;56.390;-3.266;2023-07-31T10:53:24;99249.59;;;19.26;67.79
23281;BME280;11809;56.390;-3.266;2023-07-31T10:55:52;99244.56;;;19.23;68.07
23281;BME280;11809;56.390;-3.266;2023-07-31T10:58:21;99245.72;;;19.21;68.09
23281;BME280;11809;56.390;-3.266;2023-07-31T11:00:49;99246.69;;;19.20;67.50
23281;BME280;11809;56.390;-3.266;2023-07-31T11:03:19;99241.19;;;19.21;67.90
23281;BME280;11809;56.390;-3.266;2023-07-31T11:05:59;99245.16;;;19.17;67.59
23281;BME280;11809;56.390;-3.266;2023-07-31T11:08:32;99239.84;;;19.17;67.42
23281;BME280;11809;56.390;-3.266;2023-07-31T11:13:47;99234.50;;;19.17;67.54
23281;BME280;11809;56.390;-3.266;2023-07-31T11:16:21;99236.31;;;19.17;67.25
23281;BME280;11809;56.390;-3.266;2023-07-31T11:18:50;99231.00;;;19.17;67.14
23281;BME280;11809;56.390;-3.266;2023-07-31T11:21:21;99229.47;;;19.14;67.35
23281;BME280;11809;56.390;-3.266;2023-07-31T11:23:53;99227.66;;;19.15;67.17
23281;BME280;11809;56.390;-3.266;2023-07-31T11:26:20;99224.03;;;19.16;67.42
23281;BME280;11809;56.390;-3.266;2023-07-31T11:28:48;99215.47;;;19.12;67.25
23281;BME280;11809;56.390;-3.266;2023-07-31T11:31:17;99217.00;;;19.15;67.03
23281;BME280;11809;56.390;-3.266;2023-07-31T11:33:46;99217.31;;;19.12;67.21
23281;BME280;11809;56.390;-3.266;2023-07-31T11:36:18;99212.66;;;19.14;67.08
23281;BME280;11809;56.390;-3.266;2023-07-31T11:38:46;99217.97;;;19.14;67.17
23281;BME280;11809;56.390;-3.266;2023-07-31T11:41:15;99213.78;;;19.11;67.16
23281;BME280;11809;56.390;-3.266;2023-07-31T11:43:45;99208.47;;;19.11;67.31
23281;BME280;11809;56.390;-3.266;2023-07-31T11:46:13;99207.63;;;19.11;67.24
23281;BME280;11809;56.390;-3.266;2023-07-31T11:48:42;99210.28;;;19.11;67.15
23281;BME280;11809;56.390;-3.266;2023-07-31T11:51:12;99206.66;;;19.12;67.27
23281;BME280;11809;56.390;-3.266;2023-07-31T11:53:49;99204.00;;;19.12;67.11
23281;BME280;11809;56.390;-3.266;2023-07-31T11:56:21;99193.63;;;19.09;67.13
23281;BME280;11809;56.390;-3.266;2023-07-31T11:59:00;99196.28;;;19.09;67.30
23281;BME280;11809;56.390;-3.266;2023-07-31T12:01:31;99192.66;;;19.10;67.28
23281;BME280;11809;56.390;-3.266;2023-07-31T12:04:01;99196.28;;;19.09;67.38
23281;BME280;11809;56.390;-3.266;2023-07-31T12:06:36;99197.31;;;19.08;67.35
23281;BME280;11809;56.390;-3.266;2023-07-31T12:09:07;99187.63;;;19.07;67.37
23281;BME280;11809;56.390;-3.266;2023-07-31T12:11:47;99187.63;;;19.07;67.32
23281;BME280;11809;56.390;-3.266;2023-07-31T12:14:26;99184.00;;;19.08;67.37
23281;BME280;11809;56.390;-3.266;2023-07-31T12:17:00;99172.63;;;19.06;67.33
23281;BME280;11809;56.390;-3.266;2023-07-31T12:19:32;99179.47;;;19.08;67.38
23281;BME280;11809;56.390;-3.266;2023-07-31T12:22:15;99178.78;;;19.06;67.59
23281;BME280;11809;56.390;-3.266;2023-07-31T12:24:49;99172.63;;;19.06;67.51
23281;BME280;11809;56.390;-3.266;2023-07-31T12:27:22;99167.31;;;19.06;67.48
23281;BME280;11809;56.390;-3.266;2023-07-31T12:29:53;99167.31;;;19.06;67.52
23281;BME280;11809;56.390;-3.266;2023-07-31T12:32:24;99162.97;;;19.05;67.38
23281;BME280;11809;56.390;-3.266;2023-07-31T12:35:01;99167.00;;;19.09;67.91
23281;BME280;11809;56.390;-3.266;2023-07-31T12:37:33;99164.72;;;19.14;67.58
23281;BME280;11809;56.390;-3.266;2023-07-31T12:40:02;99170.03;;;19.14;67.58
23281;BME280;11809;56.390;-3.266;2023-07-31T12:42:37;99163.34;;;19.10;67.53
23281;BME280;11809;56.390;-3.266;2023-07-31T12:45:12;99162.22;;;19.12;67.72
23281;BME280;11809;56.390;-3.266;2023-07-31T12:47:46;99158.03;;;19.10;67.79
23281;BME280;11809;56.390;-3.266;2023-07-31T12:50:22;99159.69;;;19.11;67.85
23281;BME280;11809;56.390;-3.266;2023-07-31T12:52:58;99158.59;;;19.13;68.04
23281;BME280;11809;56.390;-3.266;2023-07-31T12:55:30;99162.75;;;19.16;67.91
23281;BME280;11809;56.390;-3.266;2023-07-31T12:58:05;99155.16;;;19.21;68.18
23281;BME280;11809;56.390;-3.266;2023-07-31T13:00:38;99154.84;;;19.24;68.43
23281;BME280;11809;56.390;-3.266;2023-07-31T13:03:14;99145.00;;;19.24;68.66
23281;BME280;11809;56.390;-3.266;2023-07-31T13:05:55;99148.38;;;19.26;68.33
23281;BME280;11809;56.390;-3.266;2023-07-31T13:08:33;99146.09;;;19.31;68.75
23281;BME280;11809;56.390;-3.266;2023-07-31T13:11:06;99141.44;;;19.33;68.28
23281;BME280;11809;56.390;-3.266;2023-07-31T13:13:43;99135.94;;;19.35;68.67
23281;BME280;11809;56.390;-3.266;2023-07-31T13:16:16;99141.97;;;19.37;68.56
23281;BME280;11809;56.390;-3.266;2023-07-31T13:18:47;99133.69;;;19.40;68.72